Time;durP1;ratioP1;P1;durP2;ratioP2;P2;SDS_P1;SDS_P2;PMS_P1;PMS_P2;Temp;Humidity;BMP_temperature;BMP_pressure;BME280_temperature;BME280_humidity;BME280_pressure;Samples;Min_cycle;Max_cycle;Signal;HPM_P1;HPM_P2
2022/12/05 00:00:16;;;;;;;13.13;10.40;;;;;;;2.56;100.00;96030.38;5024460;27;105522;-68
2022/12/05 00:02:43;;;;;;;13.83;11.30;;;;;;;2.55;100.00;96027.97;5030365;27;102565;-68
2022/12/05 00:05:12;;;;;;;13.57;10.67;;;;;;;2.60;100.00;96042.09;5024369;27;101727;-68
2022/12/05 00:07:39;;;;;;;14.70;10.43;;;;;;;2.47;100.00;96039.50;5023904;27;102484;-67
2022/12/05 00:10:09;;;;;;;12.90;10.27;;;;;;;2.47;100.00;96042.13;5049259;27;104528;-68
2022/12/05 00:12:37;;;;;;;14.93;10.73;;;;;;;2.34;100.00;96046.63;5036837;27;103781;-68
2022/12/05 00:15:05;;;;;;;14.87;11.23;;;;;;;2.24;100.00;96064.63;5039203;27;103967;-68
2022/12/05 00:17:32;;;;;;;14.40;11.03;;;;;;;2.21;100.00;96057.16;5032769;28;103003;-68
2022/12/05 00:19:59;;;;;;;14.57;11.03;;;;;;;2.29;100.00;96049.88;5030063;27;102473;-68
2022/12/05 00:22:26;;;;;;;14.47;10.70;;;;;;;2.41;100.00;96044.78;5029563;28;102670;-68
2022/12/05 00:24:53;;;;;;;12.80;10.50;;;;;;;2.50;100.00;96036.47;5028667;28;101965;-68
2022/12/05 00:27:22;;;;;;;15.20;11.37;;;;;;;2.65;100.00;96036.19;5027904;27;105348;-68
2022/12/05 00:29:49;;;;;;;14.10;11.17;;;;;;;2.74;100.00;96027.06;5028117;28;105566;-67
2022/12/05 00:32:16;;;;;;;14.63;10.40;;;;;;;2.83;100.00;96018.72;5030341;27;101791;-68
2022/12/05 00:34:43;;;;;;;13.90;11.03;;;;;;;2.88;100.00;96033.84;5029147;28;105681;-67
2022/12/05 00:37:10;;;;;;;14.90;11.10;;;;;;;2.87;100.00;96029.59;5031739;28;103984;-67
2022/12/05 00:39:38;;;;;;;13.97;10.63;;;;;;;2.79;100.00;96043.78;5029785;27;102598;-68
2022/12/05 00:42:05;;;;;;;16.57;11.40;;;;;;;2.46;100.00;96055.47;5025517;28;105717;-68
2022/12/05 00:44:33;;;;;;;15.57;11.43;;;;;;;2.44;100.00;96063.56;5028790;27;102221;-68
2022/12/05 00:47:00;;;;;;;15.03;11.90;;;;;;;2.36;100.00;96065.59;5028000;27;101704;-68
2022/12/05 00:49:27;;;;;;;15.10;11.37;;;;;;;2.42;100.00;96065.59;5027920;27;102545;-68
2022/12/05 00:51:55;;;;;;;15.00;11.70;;;;;;;2.45;100.00;96064.34;5028541;27;101789;-68
2022/12/05 00:54:22;;;;;;;17.87;12.10;;;;;;;2.47;100.00;96063.13;5010694;28;105509;-68
2022/12/05 00:56:51;;;;;;;15.37;12.17;;;;;;;2.43;100.00;96064.56;5028100;27;103157;-68
2022/12/05 00:59:20;;;;;;;16.77;12.57;;;;;;;2.48;100.00;96070.00;5031982;27;101799;-68
2022/12/05 01:01:50;;;;;;;15.23;11.97;;;;;;;2.46;100.00;96068.59;5027936;27;101851;-68
2022/12/05 01:04:20;;;;;;;16.17;11.37;;;;;;;2.55;100.00;96065.53;5026423;28;102228;-68
2022/12/05 01:06:47;;;;;;;17.23;12.90;;;;;;;2.60;100.00;96078.84;5028326;27;102366;-68
2022/12/05 01:09:17;;;;;;;17.33;12.70;;;;;;;2.62;100.00;96076.78;5027804;27;102473;-68
2022/12/05 01:11:45;;;;;;;16.87;12.67;;;;;;;2.68;100.00;96070.69;5029785;27;102395;-68
2022/12/05 01:14:13;;;;;;;17.30;12.53;;;;;;;2.70;100.00;96073.94;5030442;27;103245;-68
2022/12/05 01:16:43;;;;;;;16.20;12.20;;;;;;;2.74;100.00;96074.31;5028358;28;105504;-67
2022/12/05 01:19:14;;;;;;;18.37;13.70;;;;;;;2.60;100.00;96073.59;5028947;28;102321;-68
2022/12/05 01:21:41;;;;;;;17.60;12.97;;;;;;;2.48;100.00;96080.50;5031787;28;105542;-67
2022/12/05 01:24:11;;;;;;;16.67;12.53;;;;;;;2.45;100.00;96085.34;5028746;28;101869;-68
2022/12/05 01:26:41;;;;;;;19.93;14.00;;;;;;;2.40;100.00;96103.53;5028595;28;106118;-68
2022/12/05 01:29:08;;;;;;;17.90;13.17;;;;;;;2.44;100.00;96105.53;5029569;28;101961;-68
2022/12/05 01:31:37;;;;;;;18.60;13.43;;;;;;;2.51;100.00;96105.53;5028985;28;102085;-68
2022/12/05 01:34:06;;;;;;;19.07;13.23;;;;;;;2.62;100.00;96097.00;5028686;28;105223;-68
2022/12/05 01:36:35;;;;;;;17.77;13.03;;;;;;;2.58;100.00;96091.34;5029486;27;103088;-68
2022/12/05 01:39:02;;;;;;;18.00;13.20;;;;;;;2.47;100.00;96096.44;5029780;27;101837;-68
2022/12/05 01:41:31;;;;;;;17.10;12.27;;;;;;;2.45;100.00;96106.31;5028383;28;105503;-68
2022/12/05 01:44:02;;;;;;;17.20;12.73;;;;;;;2.35;100.00;96111.22;5031585;28;105467;-68
2022/12/05 01:46:31;;;;;;;16.90;12.70;;;;;;;2.39;100.00;96120.28;5030113;27;102290;-68
2022/12/05 01:49:03;;;;;;;16.80;12.67;;;;;;;2.45;100.00;96107.13;5029105;27;102545;-68
2022/12/05 01:51:33;;;;;;;16.13;11.97;;;;;;;2.56;100.00;96108.34;5028288;28;101960;-68
2022/12/05 01:54:04;;;;;;;18.40;13.27;;;;;;;2.68;100.00;96123.19;5028567;28;105296;-68
2022/12/05 01:56:32;;;;;;;17.30;12.83;;;;;;;2.58;100.00;96137.78;5027735;28;105048;-68
2022/12/05 01:59:02;;;;;;;19.40;13.17;;;;;;;2.35;100.00;96142.69;5028183;28;102181;-68
2022/12/05 02:01:29;;;;;;;16.77;12.67;;;;;;;2.43;100.00;96121.47;5028292;28;105174;-68
2022/12/05 02:03:58;;;;;;;16.83;12.50;;;;;;;2.52;100.00;96122.88;5027222;28;105898;-68
2022/12/05 02:06:28;;;;;;;16.47;12.73;;;;;;;2.43;100.00;96140.66;5031658;28;102108;-68
2022/12/05 02:08:56;;;;;;;19.57;13.67;;;;;;;2.38;100.00;96152.78;5027612;28;105821;-68
2022/12/05 02:11:27;;;;;;;20.07;13.40;;;;;;;2.32;100.00;96159.66;5028093;28;102362;-68
2022/12/05 02:14:13;;;;;;;16.27;13.07;;;;;;;2.39;100.00;96154.38;5028253;28;104980;-67
2022/12/05 02:16:50;;;;;;;18.47;12.47;;;;;;;2.52;100.00;96157.00;5027544;28;105206;-67
2022/12/05 02:19:48;;;;;;;18.10;12.83;;;;;;;2.54;100.00;96150.53;5027763;28;101816;-67
2022/12/05 02:22:38;;;;;;;21.20;13.47;;;;;;;2.35;100.00;96151.38;5027994;28;103472;-68
2022/12/05 02:25:17;;;;;;;17.97;13.00;;;;;;;2.37;100.00;96136.25;5028016;28;103162;-68
2022/12/05 02:28:09;;;;;;;17.30;12.97;;;;;;;2.51;100.00;96152.75;5027946;28;101790;-68
2022/12/05 02:30:40;;;;;;;18.00;13.00;;;;;;;2.51;100.00;96152.75;5030918;28;105154;-68
2022/12/05 02:33:18;;;;;;;18.63;13.03;;;;;;;2.47;100.00;96154.19;5027528;28;102345;-68
2022/12/05 02:35:53;;;;;;;16.63;12.40;;;;;;;2.63;100.00;96143.22;5027873;28;104928;-67
2022/12/05 02:38:28;;;;;;;16.67;12.60;;;;;;;2.60;100.00;96156.75;5028866;27;101825;-67
2022/12/05 02:41:05;;;;;;;20.90;13.43;;;;;;;2.49;100.00;96165.25;5027743;28;101980;-67
2022/12/05 02:43:37;;;;;;;16.77;12.80;;;;;;;2.43;100.00;96151.16;5029134;27;102384;-67
2022/12/05 02:46:11;;;;;;;17.13;12.97;;;;;;;2.38;100.00;96160.66;5028411;27;104848;-68
2022/12/05 02:48:41;;;;;;;17.93;12.53;;;;;;;2.39;100.00;96180.63;5029318;27;101649;-68
2022/12/05 02:51:10;;;;;;;16.97;13.37;;;;;;;2.33;100.00;96182.25;5035391;27;102306;-68
2022/12/05 02:53:39;;;;;;;17.63;13.63;;;;;;;2.28;100.00;96179.44;5032402;27;101910;-68
2022/12/05 02:56:07;;;;;;;16.83;12.23;;;;;;;2.16;100.00;96180.25;5031113;28;105056;-68
2022/12/05 02:58:40;;;;;;;17.87;12.30;;;;;;;2.08;100.00;96180.47;5031994;28;104605;-68
2022/12/05 03:01:10;;;;;;;18.87;12.00;;;;;;;2.05;100.00;96191.34;5032557;27;102036;-68
2022/12/05 03:03:37;;;;;;;16.50;11.90;;;;;;;2.05;100.00;96200.03;5030747;28;104862;-68
2022/12/05 03:06:13;;;;;;;17.80;11.80;;;;;;;2.19;100.00;96206.09;5031688;27;103363;-68
2022/12/05 03:08:45;;;;;;;17.83;12.73;;;;;;;2.08;100.00;96225.06;5032627;27;101849;-68
2022/12/05 03:11:13;;;;;;;16.63;12.50;;;;;;;2.08;100.00;96227.69;5032662;28;102804;-68
2022/12/05 03:13:46;;;;;;;17.00;12.30;;;;;;;2.02;100.00;96220.63;5034876;27;102691;-68
2022/12/05 03:16:20;;;;;;;18.97;13.13;;;;;;;2.02;100.00;96231.91;5030865;28;105721;-68
2022/12/05 03:18:50;;;;;;;17.30;12.23;;;;;;;2.03;100.00;96237.97;5031849;27;102838;-68
2022/12/05 03:21:25;;;;;;;18.33;12.33;;;;;;;1.95;100.00;96241.59;5030908;28;101878;-68
2022/12/05 03:23:58;;;;;;;19.67;12.83;;;;;;;1.96;100.00;96250.25;5030902;28;103794;-68
2022/12/05 03:26:36;;;;;;;18.97;13.13;;;;;;;1.93;100.00;96259.34;5029962;28;105162;-68
2022/12/05 03:29:17;;;;;;;18.03;12.63;;;;;;;1.92;100.00;96260.31;5030717;28;101904;-68
2022/12/05 03:31:55;;;;;;;17.00;12.10;;;;;;;1.81;100.00;96254.88;5030580;28;105567;-68
2022/12/05 03:34:35;;;;;;;16.00;11.47;;;;;;;1.80;100.00;96266.38;5030050;28;104866;-68
2022/12/05 03:37:09;;;;;;;17.23;12.33;;;;;;;1.77;100.00;96278.06;5034104;28;101879;-68
2022/12/05 03:39:41;;;;;;;16.33;12.10;;;;;;;1.74;100.00;96288.94;5031480;27;102616;-68
2022/12/05 03:42:13;;;;;;;15.57;10.97;;;;;;;1.60;100.00;96292.50;5031887;27;101981;-68
2022/12/05 03:44:47;;;;;;;17.97;11.03;;;;;;;1.59;100.00;96292.72;5030539;28;105137;-68
2022/12/05 03:47:21;;;;;;;15.27;10.53;;;;;;;1.60;100.00;96294.34;5029772;28;105599;-68
2022/12/05 03:49:52;;;;;;;15.37;10.60;;;;;;;1.62;100.00;96302.81;5030383;28;101826;-68
2022/12/05 03:52:24;;;;;;;17.27;11.07;;;;;;;1.65;100.00;96302.44;5030327;28;105644;-68
2022/12/05 03:54:55;;;;;;;16.30;11.20;;;;;;;1.64;100.00;96303.44;5029851;28;105940;-68
2022/12/05 03:57:26;;;;;;;17.00;10.90;;;;;;;1.62;100.00;96297.56;5031615;27;101698;-68
2022/12/05 03:59:57;;;;;;;14.87;10.73;;;;;;;1.61;100.00;96295.94;5032907;27;104455;-68
2022/12/05 04:02:32;;;;;;;15.93;10.43;;;;;;;1.68;100.00;96296.78;5030552;27;101714;-68
2022/12/05 04:05:04;;;;;;;15.10;10.10;;;;;;;1.67;100.00;96292.53;5031295;27;103554;-68
2022/12/05 04:07:36;;;;;;;12.63;9.57;;;;;;;1.74;100.00;96291.56;5030769;27;104740;-68
2022/12/05 04:10:08;;;;;;;12.20;9.00;;;;;;;1.79;100.00;96304.06;5031132;28;101788;-68
2022/12/05 04:12:39;;;;;;;11.83;9.20;;;;;;;1.73;100.00;96302.22;5030750;28;105573;-68
2022/12/05 04:15:10;;;;;;;12.10;9.37;;;;;;;1.71;100.00;96307.66;5030343;28;105651;-68
2022/12/05 04:17:45;;;;;;;10.53;8.67;;;;;;;1.77;100.00;96304.28;5032679;27;101689;-68
2022/12/05 04:23:01;;;;;;;11.60;8.57;;;;;;;1.82;100.00;96314.16;5033782;28;106030;-68
2022/12/05 04:25:35;;;;;;;13.00;10.00;;;;;;;1.84;100.00;96317.38;5032253;27;102434;-68
2022/12/05 04:28:21;;;;;;;11.93;9.27;;;;;;;1.86;100.00;96312.78;5029047;28;105702;-68
2022/12/05 04:30:53;;;;;;;13.60;9.23;;;;;;;1.93;100.00;96316.22;5030665;28;101878;-68
2022/12/05 04:33:29;;;;;;;12.70;9.40;;;;;;;1.90;100.00;96312.16;5032210;27;102298;-68
2022/12/05 04:36:03;;;;;;;11.67;9.23;;;;;;;1.97;100.00;96322.69;5030217;28;105650;-68
2022/12/05 04:38:35;;;;;;;12.87;9.30;;;;;;;1.94;100.00;96321.25;5032194;27;102028;-68
2022/12/05 04:41:05;;;;;;;14.00;9.80;;;;;;;1.98;100.00;96324.28;5031899;27;102516;-68
2022/12/05 04:43:37;;;;;;;14.77;10.40;;;;;;;1.93;100.00;96321.44;5031030;28;102769;-68
2022/12/05 04:46:07;;;;;;;13.93;9.83;;;;;;;2.02;100.00;96315.03;5033005;28;101784;-68
2022/12/05 04:48:40;;;;;;;12.50;9.77;;;;;;;2.03;100.00;96327.13;5029717;28;105720;-68
2022/12/05 04:51:10;;;;;;;15.70;10.10;;;;;;;2.11;100.00;96321.69;5031513;27;101785;-68
2022/12/05 04:53:37;;;;;;;13.73;9.90;;;;;;;2.04;100.00;96323.50;5029506;28;105516;-68
2022/12/05 04:56:06;;;;;;;14.43;10.23;;;;;;;2.08;100.00;96320.25;5029315;28;105817;-68
2022/12/05 04:58:33;;;;;;;14.93;10.17;;;;;;;2.16;100.00;96322.72;5030515;28;101832;-68
2022/12/05 05:01:07;;;;;;;14.27;10.50;;;;;;;2.11;100.00;96324.31;5030730;27;102293;-68
2022/12/05 05:03:41;;;;;;;14.27;9.90;;;;;;;2.19;100.00;96326.75;5028409;28;105273;-68
2022/12/05 05:06:10;;;;;;;13.53;9.10;;;;;;;2.26;100.00;96330.19;5034831;27;101703;-68
2022/12/05 05:08:37;;;;;;;14.87;10.63;;;;;;;2.17;100.00;96326.94;5029387;28;104217;-68
2022/12/05 05:11:12;;;;;;;13.23;10.07;;;;;;;2.21;100.00;96335.22;5030295;27;103560;-68
2022/12/05 05:13:39;;;;;;;14.67;10.03;;;;;;;2.26;100.00;96335.44;5028697;27;105347;-68
2022/12/05 05:16:07;;;;;;;11.97;9.00;;;;;;;2.30;100.00;96344.53;5029981;27;103002;-68
2022/12/05 05:18:36;;;;;;;13.90;10.07;;;;;;;2.35;100.00;96347.34;5029830;28;101869;-68
2022/12/05 05:21:03;;;;;;;13.60;9.40;;;;;;;2.29;100.00;96350.78;5030286;27;102309;-68
2022/12/05 05:23:32;;;;;;;13.37;9.73;;;;;;;2.29;100.00;96358.66;5029197;28;105547;-68
2022/12/05 05:25:58;;;;;;;11.83;9.43;;;;;;;2.29;100.00;96359.44;5029772;28;102091;-68
2022/12/05 05:28:25;;;;;;;14.23;10.03;;;;;;;2.30;100.00;96350.56;5034243;27;102355;-68
2022/12/05 05:30:52;;;;;;;13.27;9.77;;;;;;;2.26;100.00;96359.84;5030106;27;101802;-68
2022/12/05 05:33:20;;;;;;;11.63;9.43;;;;;;;2.26;100.00;96349.38;5031202;27;103005;-68
2022/12/05 05:35:48;;;;;;;16.37;10.83;;;;;;;2.30;100.00;96344.53;5030802;27;102782;-68
2022/12/05 05:38:16;;;;;;;13.03;9.70;;;;;;;2.29;100.00;96346.31;5029633;27;101809;-68
2022/12/05 05:40:42;;;;;;;15.10;9.97;;;;;;;2.35;100.00;96347.34;5030669;27;102418;-68
2022/12/05 05:43:11;;;;;;;14.07;9.73;;;;;;;2.42;100.00;96348.16;5028055;27;103165;-68
2022/12/05 05:45:37;;;;;;;14.57;9.77;;;;;;;2.40;100.00;96345.72;5009289;28;102045;-68
2022/12/05 05:48:05;;;;;;;13.20;10.47;;;;;;;2.40;100.00;96337.84;5030569;27;102392;-68
2022/12/05 05:50:34;;;;;;;12.20;9.67;;;;;;;2.48;100.00;96337.69;5030284;28;105804;-68
2022/12/05 05:53:02;;;;;;;13.00;9.30;;;;;;;2.54;100.00;96341.28;5030494;28;102376;-68
2022/12/05 05:55:32;;;;;;;12.73;9.83;;;;;;;2.55;100.00;96342.91;5030157;27;103040;-68
2022/12/05 05:58:00;;;;;;;14.93;10.17;;;;;;;2.55;100.00;96341.09;5030731;27;101760;-68
2022/12/05 06:00:27;;;;;;;12.10;9.53;;;;;;;2.51;100.00;96347.75;5029794;27;102340;-68
2022/12/05 06:02:54;;;;;;;12.93;9.30;;;;;;;2.65;100.00;96354.63;5027969;28;103806;-68
2022/12/05 06:05:21;;;;;;;13.10;10.13;;;;;;;2.69;100.00;96360.28;5029157;28;101969;-69
2022/12/05 06:07:52;;;;;;;13.50;9.60;;;;;;;2.78;100.00;96359.88;5027764;28;105193;-69
2022/12/05 06:10:22;;;;;;;13.63;10.03;;;;;;;2.87;100.00;96366.53;5029069;27;103737;-69
2022/12/05 06:12:50;;;;;;;14.33;10.37;;;;;;;2.86;100.00;96382.50;5032335;27;101984;-69
2022/12/05 06:15:17;;;;;;;13.13;9.40;;;;;;;2.92;100.00;96381.69;5027303;28;105889;-69
2022/12/05 06:17:44;;;;;;;12.67;9.63;;;;;;;2.98;100.00;96386.13;5029343;28;101850;-69
2022/12/05 06:20:12;;;;;;;14.20;10.07;;;;;;;3.06;100.00;96391.97;5030450;27;102875;-69
2022/12/05 06:22:40;;;;;;;15.87;10.30;;;;;;;3.06;100.00;96394.59;5028325;28;103237;-69
2022/12/05 06:25:08;;;;;;;13.27;10.10;;;;;;;3.05;100.00;96397.44;5028475;27;101824;-69
2022/12/05 06:27:36;;;;;;;12.33;9.77;;;;;;;3.07;100.00;96395.41;5028673;27;101897;-69
2022/12/05 06:30:04;;;;;;;13.13;9.93;;;;;;;3.01;100.00;96402.28;5028080;28;105754;-69
2022/12/05 06:32:32;;;;;;;11.53;9.03;;;;;;;2.98;100.00;96392.19;5030290;27;103350;-69
2022/12/05 06:35:06;;;;;;;12.33;9.43;;;;;;;3.08;100.00;96389.16;5014922;28;103654;-69
2022/12/05 06:37:37;;;;;;;12.10;9.30;;;;;;;3.10;100.00;96395.81;5030021;27;101681;-69
2022/12/05 06:40:05;;;;;;;13.87;9.70;;;;;;;3.15;100.00;96408.31;5028569;28;105483;-70
2022/12/05 06:42:32;;;;;;;11.97;9.47;;;;;;;3.11;100.00;96405.31;5029266;27;102538;-69
2022/12/05 06:45:02;;;;;;;12.53;9.93;;;;;;;3.04;100.00;96407.13;5028964;27;102225;-69
2022/12/05 06:47:30;;;;;;;13.77;10.30;;;;;;;3.01;100.00;96412.78;5030128;27;102293;-70
2022/12/05 06:49:57;;;;;;;12.50;10.00;;;;;;;3.01;100.00;96409.38;5028477;27;102494;-70
2022/12/05 06:52:26;;;;;;;12.60;10.17;;;;;;;2.99;100.00;96404.31;5027269;28;102155;-70
2022/12/05 06:54:55;;;;;;;13.00;10.03;;;;;;;3.05;100.00;96416.63;5010597;28;103777;-69
2022/12/05 06:57:22;;;;;;;14.40;11.93;;;;;;;3.08;100.00;96415.41;5031277;27;101923;-69
2022/12/05 07:01:37;;;;;;;14.63;10.70;;;;;;;3.03;100.00;96416.03;5027237;28;105558;-70
2022/12/05 07:02:40;;;;;;;15.80;11.70;;;;;;;3.08;100.00;96418.88;5027871;28;102642;-70
2022/12/05 07:05:08;;;;;;;15.60;11.97;;;;;;;3.20;100.00;96426.91;5027483;28;101992;-69
2022/12/05 07:07:35;;;;;;;12.77;10.43;;;;;;;3.18;100.00;96423.69;5027101;28;105501;-70
2022/12/05 07:10:02;;;;;;;13.17;11.30;;;;;;;3.14;100.00;96414.59;5026733;28;105315;-69
2022/12/05 07:12:30;;;;;;;14.23;10.93;;;;;;;3.16;100.00;96413.38;5027321;28;102091;-70
2022/12/05 07:14:57;;;;;;;13.77;10.80;;;;;;;3.12;100.00;96404.28;5027528;27;103578;-70
2022/12/05 07:17:24;;;;;;;12.40;10.30;;;;;;;3.04;100.00;96406.31;5031739;27;102546;-70
2022/12/05 07:19:54;;;;;;;12.77;10.20;;;;;;;3.16;100.00;96409.97;5027133;28;105294;-70
2022/12/05 07:22:25;;;;;;;12.73;10.13;;;;;;;3.22;100.00;96415.19;5026256;28;104936;-69
2022/12/05 07:24:52;;;;;;;18.40;13.90;;;;;;;3.29;100.00;96436.22;5028767;27;101760;-69
2022/12/05 07:27:22;;;;;;;21.63;15.60;;;;;;;3.34;100.00;96444.31;5027060;28;105040;-70
2022/12/05 07:29:52;;;;;;;20.07;14.43;;;;;;;3.31;100.00;96439.44;5027857;27;102473;-70
2022/12/05 07:32:20;;;;;;;21.53;15.37;;;;;;;3.39;100.00;96432.16;5028310;27;101808;-70
2022/12/05 07:34:48;;;;;;;15.97;12.07;;;;;;;3.33;100.00;96419.03;5028842;27;102575;-70
2022/12/05 07:37:20;;;;;;;14.30;11.53;;;;;;;3.34;100.00;96424.06;5031242;27;101773;-70
2022/12/05 07:39:47;;;;;;;15.77;11.63;;;;;;;3.41;100.00;96429.31;5035555;27;101695;-70
2022/12/05 07:42:15;;;;;;;13.27;10.73;;;;;;;3.50;100.00;96434.16;5030827;27;102646;-70
2022/12/05 07:44:42;;;;;;;12.83;10.30;;;;;;;3.57;100.00;96434.16;5030297;28;102091;-69
2022/12/05 07:47:09;;;;;;;14.20;11.13;;;;;;;3.61;100.00;96440.63;5031333;27;103051;-70
2022/12/05 07:49:37;;;;;;;14.60;11.97;;;;;;;3.52;100.00;96447.09;5030795;27;102578;-70
2022/12/05 07:52:04;;;;;;;16.37;11.87;;;;;;;3.59;100.00;96447.88;5031107;27;102095;-70
2022/12/05 07:54:33;;;;;;;17.07;12.53;;;;;;;3.58;100.00;96452.34;5030399;28;105525;-70
2022/12/05 07:57:00;;;;;;;15.30;11.47;;;;;;;3.58;100.00;96454.16;5028680;28;105931;-70
2022/12/05 07:59:30;;;;;;;16.23;11.97;;;;;;;3.59;100.00;96459.22;5031656;27;101795;-70
2022/12/05 08:01:57;;;;;;;14.83;11.33;;;;;;;3.63;100.00;96449.09;5032774;28;105551;-70
2022/12/05 08:04:24;;;;;;;16.63;11.30;;;;;;;3.68;100.00;96441.41;5029737;28;101843;-70
2022/12/05 08:06:53;;;;;;;17.40;10.87;;;;;;;3.76;100.00;96442.00;5029622;28;105286;-70
2022/12/05 08:09:19;;;;;;;18.73;14.10;;;;;;;3.90;100.00;96442.75;5030051;28;102587;-70
2022/12/05 08:11:53;;;;;;;17.30;13.63;;;;;;;4.19;100.00;96439.59;5029863;28;102238;-70
2022/12/05 08:14:22;;;;;;;16.17;12.07;;;;;;;4.34;100.00;96437.50;5029857;28;105807;-70
2022/12/05 08:16:51;;;;;;;15.90;12.13;;;;;;;4.41;100.00;96438.28;5030286;27;103328;-70
2022/12/05 08:19:18;;;;;;;16.03;12.10;;;;;;;4.46;100.00;96441.91;5031281;27;101846;-70
2022/12/05 08:21:45;;;;;;;14.67;11.27;;;;;;;4.47;100.00;96437.47;5029888;28;105113;-70
2022/12/05 08:24:13;;;;;;;14.90;11.60;;;;;;;4.39;100.00;96450.84;5032075;28;105726;-70
2022/12/05 08:26:41;;;;;;;14.67;11.30;;;;;;;4.38;100.00;96460.59;5030295;27;102420;-70
2022/12/05 08:29:12;;;;;;;13.23;11.10;;;;;;;4.28;100.00;96456.78;5028814;28;105756;-70
2022/12/05 08:31:41;;;;;;;15.37;11.70;;;;;;;4.15;100.00;96455.00;5028426;28;101848;-70
2022/12/05 08:34:08;;;;;;;13.47;11.13;;;;;;;4.13;100.00;96461.50;5030740;27;102991;-69
2022/12/05 08:36:36;;;;;;;17.30;12.57;;;;;;;4.18;100.00;96464.31;5029044;28;105306;-70
2022/12/05 08:39:06;;;;;;;15.33;11.27;;;;;;;4.20;100.00;96465.72;5027184;28;103523;-70
2022/12/05 08:41:33;;;;;;;15.63;12.50;;;;;;;4.25;100.00;96475.63;5029427;28;105227;-70
2022/12/05 08:44:04;;;;;;;17.07;12.40;;;;;;;4.28;100.00;96472.56;5029888;27;101899;-70
2022/12/05 08:46:35;;;;;;;19.60;14.43;;;;;;;4.22;100.00;96484.75;5033532;27;101853;-70
2022/12/05 08:49:02;;;;;;;16.30;11.97;;;;;;;4.06;100.00;96481.75;5028741;28;105534;-69
2022/12/05 08:51:29;;;;;;;16.03;11.70;;;;;;;3.97;100.00;96472.47;5028707;28;101941;-70
2022/12/05 08:53:56;;;;;;;15.10;11.73;;;;;;;4.01;100.00;96468.41;5030785;27;102535;-70
2022/12/05 08:56:24;;;;;;;13.07;11.03;;;;;;;4.09;100.00;96466.38;5028932;27;102681;-70
2022/12/05 08:58:51;;;;;;;12.93;10.87;;;;;;;4.29;100.00;96471.53;5030128;27;101824;-70
2022/12/05 09:01:22;;;;;;;14.07;11.53;;;;;;;4.34;100.00;96471.72;5029987;27;102261;-70
2022/12/05 09:03:50;;;;;;;13.67;11.53;;;;;;;4.33;100.00;96473.56;5027767;28;106612;-70
2022/12/05 09:06:21;;;;;;;15.10;11.57;;;;;;;4.19;100.00;96471.19;5046811;27;101948;-70
2022/12/05 09:08:49;;;;;;;16.03;13.27;;;;;;;4.05;100.00;96480.94;5027672;28;105966;-70
2022/12/05 09:11:18;;;;;;;15.50;12.63;;;;;;;3.96;100.00;96497.16;5028834;28;101955;-70
2022/12/05 09:13:46;;;;;;;15.40;11.83;;;;;;;3.94;100.00;96494.75;5030187;27;102608;-70
2022/12/05 09:16:17;;;;;;;14.90;11.70;;;;;;;3.99;100.00;96507.28;5028196;28;106047;-70
2022/12/05 09:18:44;;;;;;;13.67;11.50;;;;;;;3.98;100.00;96508.31;5028873;28;101869;-70
2022/12/05 09:21:14;;;;;;;13.07;10.90;;;;;;;4.06;100.00;96500.19;5028070;28;105481;-69
2022/12/05 09:23:41;;;;;;;14.30;10.73;;;;;;;4.05;100.00;96499.38;5029356;27;102799;-68
2022/12/05 09:26:12;;;;;;;13.93;11.73;;;;;;;4.07;100.00;96499.16;5030003;27;101773;-68
2022/12/05 09:28:39;;;;;;;14.57;11.00;;;;;;;4.01;100.00;96511.34;5031364;28;105373;-69
2022/12/05 09:31:14;;;;;;;13.83;10.70;;;;;;;4.25;100.00;96507.22;5029983;27;101787;-69
2022/12/05 09:33:41;;;;;;;14.93;11.50;;;;;;;4.31;100.00;96501.91;5028534;28;105912;-69
2022/12/05 09:36:13;;;;;;;13.57;10.70;;;;;;;4.41;100.00;96501.47;5028036;28;105834;-69
2022/12/05 09:38:41;;;;;;;14.27;10.93;;;;;;;4.45;100.00;96505.28;5030218;27;102075;-69
2022/12/05 09:41:20;;;;;;;16.97;12.53;;;;;;;4.31;100.00;96504.53;5026663;27;103772;-69
2022/12/05 09:43:57;;;;;;;15.73;12.00;;;;;;;4.35;100.00;96504.94;5027418;28;105401;-70
2022/12/05 09:46:34;;;;;;;14.83;11.20;;;;;;;4.45;100.00;96502.66;5028967;27;101762;-70
2022/12/05 09:49:04;;;;;;;15.30;11.37;;;;;;;4.36;100.00;96503.94;5029477;27;102800;-69
2022/12/05 09:51:33;;;;;;;15.47;12.13;;;;;;;4.43;100.00;96505.50;5030847;28;105075;-67
2022/12/05 09:54:00;;;;;;;13.00;10.47;;;;;;;4.51;100.00;96501.81;5027572;28;105175;-70
2022/12/05 09:56:29;;;;;;;14.20;10.93;;;;;;;4.47;100.00;96500.66;5028425;27;103154;-70
2022/12/05 09:58:59;;;;;;;14.07;11.43;;;;;;;4.18;100.00;96501.16;5026776;28;102617;-69
2022/12/05 10:01:33;;;;;;;15.70;11.67;;;;;;;4.26;100.00;96499.09;5029049;27;102360;-69
2022/12/05 10:04:33;;;;;;;14.67;10.80;;;;;;;4.15;100.00;96502.38;5026801;28;105909;-69
2022/12/05 10:07:12;;;;;;;14.70;11.17;;;;;;;4.19;100.00;96500.94;5026121;27;101889;-69
2022/12/05 10:09:52;;;;;;;14.70;11.97;;;;;;;4.24;100.00;96502.94;5029196;27;102859;-69
2022/12/05 10:12:38;;;;;;;13.43;10.63;;;;;;;4.43;100.00;96512.59;5026701;28;105315;-69
2022/12/05 10:15:15;;;;;;;14.30;11.73;;;;;;;4.58;100.00;96513.16;5032594;27;102231;-70
2022/12/05 10:17:46;;;;;;;15.93;11.40;;;;;;;4.51;100.00;96509.72;5028620;27;102613;-70
2022/12/05 10:20:20;;;;;;;15.07;11.27;;;;;;;4.56;100.00;96509.91;5029217;27;101666;-70
2022/12/05 10:22:55;;;;;;;13.70;11.40;;;;;;;4.37;100.00;96508.19;5027081;27;103097;-69
2022/12/05 10:25:25;;;;;;;13.63;10.67;;;;;;;4.11;100.00;96505.63;5028483;27;103013;-70
2022/12/05 10:27:55;;;;;;;13.80;11.40;;;;;;;3.99;100.00;96509.94;5028683;27;101783;-70
2022/12/05 10:30:24;;;;;;;15.07;11.03;;;;;;;4.15;100.00;96502.38;5027290;28;103590;-69
2022/12/05 10:32:54;;;;;;;14.77;11.10;;;;;;;4.32;100.00;96513.25;5026665;28;105665;-69
2022/12/05 10:35:24;;;;;;;13.43;10.67;;;;;;;4.41;100.00;96506.72;5028881;27;102159;-69
2022/12/05 10:37:56;;;;;;;14.17;10.70;;;;;;;4.42;100.00;96506.53;5031880;27;102462;-69
2022/12/05 10:40:27;;;;;;;14.57;11.50;;;;;;;4.42;100.00;96503.88;5028542;27;102000;-69
2022/12/05 10:42:55;;;;;;;13.17;10.40;;;;;;;4.55;100.00;96503.03;5027291;28;105121;-69
2022/12/05 10:45:24;;;;;;;15.03;12.40;;;;;;;4.70;100.00;96500.94;5028149;27;102787;-69
2022/12/05 10:47:55;;;;;;;13.40;10.43;;;;;;;4.75;100.00;96504.53;5027604;28;101998;-69
2022/12/05 10:50:27;;;;;;;13.33;10.73;;;;;;;4.65;100.00;96492.84;5028821;27;102444;-69
2022/12/05 10:52:58;;;;;;;12.90;10.67;;;;;;;4.78;100.00;96496.22;5027204;27;105040;-69
2022/12/05 10:55:31;;;;;;;15.23;11.77;;;;;;;4.89;100.00;96494.72;5026559;28;101669;-69
2022/12/05 10:58:11;;;;;;;14.63;11.27;;;;;;;5.00;100.00;96486.13;5028040;27;101736;-69
2022/12/05 11:00:45;;;;;;;13.97;11.33;;;;;;;4.88;100.00;96493.13;5031506;27;102501;-69
2022/12/05 11:03:25;;;;;;;15.40;12.17;;;;;;;4.91;100.00;96492.72;5028011;28;102934;-69
2022/12/05 11:05:55;;;;;;;14.83;11.67;;;;;;;4.99;100.00;96497.72;5028135;27;102719;-69
2022/12/05 11:08:27;;;;;;;14.50;12.10;;;;;;;4.86;100.00;96490.69;5028413;27;101831;-69
2022/12/05 11:11:06;;;;;;;14.73;11.60;;;;;;;5.23;100.00;96496.94;5030490;27;102305;-69
2022/12/05 11:13:35;;;;;;;17.07;13.30;;;;;;;5.21;100.00;96501.59;5031066;27;102491;-69
2022/12/05 11:16:02;;;;;;;16.97;12.77;;;;;;;5.18;100.00;96489.66;5031914;27;101698;-69
2022/12/05 11:18:33;;;;;;;17.33;11.87;;;;;;;5.32;100.00;96491.19;5031877;27;102303;-69
2022/12/05 11:21:14;;;;;;;16.80;12.53;;;;;;;5.43;100.00;96489.66;5033606;27;105826;-69
2022/12/05 11:23:50;;;;;;;16.50;12.33;;;;;;;5.61;100.00;96489.69;5029989;28;105189;-69
2022/12/05 11:26:36;;;;;;;17.33;13.50;;;;;;;5.52;100.00;96480.47;5030749;27;103713;-69